Time;durP1;ratioP1;P1;durP2;ratioP2;P2;SDS_P1;SDS_P2;PMS_P1;PMS_P2;Temp;Humidity;BMP_temperature;BMP_pressure;BME280_temperature;BME280_humidity;BME280_pressure;Samples;Min_cycle;Max_cycle;Signal;HPM_P1;HPM_P2
2021/01/19 00:01:23;;;;;;;8.13;3.22;;;25.60;61.00;;;;;;6241362;23;20012;-74
2021/01/19 00:03:49;;;;;;;13.18;2.40;;;25.60;60.80;;;;;;6239482;23;20018;-76
2021/01/19 00:06:17;;;;;;;12.82;2.70;;;25.60;61.00;;;;;;6240812;23;19996;-73
2021/01/19 00:08:43;;;;;;;9.88;2.40;;;25.60;61.10;;;;;;6240446;23;20000;-70
2021/01/19 00:11:10;;;;;;;10.63;2.53;;;25.60;61.40;;;;;;6240498;23;20027;-69
2021/01/19 00:13:36;;;;;;;5.57;1.95;;;25.60;61.10;;;;;;6240890;23;20008;-71
2021/01/19 00:16:03;;;;;;;8.63;2.72;;;25.50;61.30;;;;;;6239552;23;20000;-72
2021/01/19 00:18:29;;;;;;;10.63;2.83;;;25.60;61.40;;;;;;6241818;23;20343;-75
2021/01/19 00:20:56;;;;;;;7.93;2.58;;;25.60;61.40;;;;;;6239547;23;20004;-70
2021/01/19 00:23:22;;;;;;;8.70;3.25;;;25.50;61.30;;;;;;6241144;23;20012;-75
2021/01/19 00:25:49;;;;;;;9.60;2.75;;;25.50;61.50;;;;;;6240514;23;20727;-75
2021/01/19 00:28:15;;;;;;;7.57;2.15;;;25.50;61.50;;;;;;6240883;23;20004;-72
2021/01/19 00:30:43;;;;;;;7.57;3.08;;;25.60;61.60;;;;;;6240834;23;20003;-77
2021/01/19 00:33:11;;;;;;;8.10;2.83;;;25.50;61.50;;;;;;6240352;23;20001;-70
2021/01/19 00:35:41;;;;;;;8.30;2.42;;;25.50;61.60;;;;;;6239981;22;20007;-72
2021/01/19 00:38:08;;;;;;;11.20;2.97;;;25.50;61.70;;;;;;6239676;22;20062;-76
2021/01/19 00:40:35;;;;;;;5.47;2.58;;;25.50;61.60;;;;;;6240766;22;20028;-70
2021/01/19 00:43:02;;;;;;;11.05;3.72;;;25.50;61.70;;;;;;6239440;23;20000;-75
2021/01/19 00:45:29;;;;;;;9.75;2.25;;;25.50;61.80;;;;;;6240667;23;20058;-77
2021/01/19 00:47:56;;;;;;;13.52;4.57;;;25.40;61.80;;;;;;6240244;23;20004;-78
2021/01/19 00:50:24;;;;;;;8.60;2.58;;;25.50;61.70;;;;;;6239883;23;20011;-72
2021/01/19 00:52:50;;;;;;;9.45;2.97;;;25.50;61.70;;;;;;6240679;23;20004;-75
2021/01/19 00:55:17;;;;;;;4.53;2.03;;;25.40;61.80;;;;;;6239271;22;20008;-81
2021/01/19 00:57:47;;;;;;;6.43;1.95;;;25.40;61.80;;;;;;6240747;23;20491;-77
2021/01/19 01:00:15;;;;;;;5.53;1.85;;;25.40;61.80;;;;;;6238995;23;20093;-78
2021/01/19 01:02:41;;;;;;;10.48;3.10;;;25.40;61.90;;;;;;6241125;23;19996;-76
2021/01/19 01:05:09;;;;;;;6.82;2.85;;;25.40;62.00;;;;;;6240519;23;20012;-76
2021/01/19 01:07:42;;;;;;;11.60;2.88;;;25.40;62.10;;;;;;6240261;23;20007;-79
2021/01/19 01:10:15;;;;;;;6.05;1.88;;;25.40;62.00;;;;;;6240944;23;20546;-71
2021/01/19 01:12:43;;;;;;;7.22;2.28;;;25.40;62.10;;;;;;6239478;23;20000;-69
2021/01/19 01:15:11;;;;;;;10.45;3.10;;;25.40;62.20;;;;;;6239838;22;20396;-79
2021/01/19 01:17:40;;;;;;;11.25;3.30;;;25.40;62.20;;;;;;6239230;23;20083;-69
2021/01/19 01:20:11;;;;;;;9.65;2.65;;;25.40;62.50;;;;;;6240384;23;19996;-76
2021/01/19 01:22:44;;;;;;;7.53;2.30;;;25.30;62.50;;;;;;6240108;23;20032;-76
2021/01/19 01:25:13;;;;;;;8.63;2.42;;;25.30;62.50;;;;;;6238998;23;20008;-71
2021/01/19 01:27:41;;;;;;;8.50;3.05;;;25.30;62.40;;;;;;6240089;23;20353;-78
2021/01/19 01:30:09;;;;;;;9.50;3.50;;;25.30;62.50;;;;;;6239626;23;19996;-79
2021/01/19 01:32:44;;;;;;;10.25;3.35;;;25.30;62.60;;;;;;6240773;23;20119;-74
2021/01/19 01:35:12;;;;;;;7.05;4.05;;;25.30;62.70;;;;;;6239594;23;20008;-79
2021/01/19 01:37:49;;;;;;;9.32;3.88;;;25.30;62.70;;;;;;6239696;23;20277;-76
2021/01/19 01:40:18;;;;;;;6.65;2.80;;;25.30;62.60;;;;;;6240812;23;20081;-77
2021/01/19 01:42:45;;;;;;;5.65;2.10;;;25.20;62.60;;;;;;6238636;23;20320;-75
2021/01/19 01:45:16;;;;;;;8.95;3.30;;;25.20;62.70;;;;;;6240374;23;20042;-77
2021/01/19 01:47:42;;;;;;;7.10;2.58;;;25.20;62.70;;;;;;6237458;23;20354;-72
2021/01/19 01:50:09;;;;;;;4.90;2.25;;;25.20;62.70;;;;;;6240594;23;20000;-70
2021/01/19 01:52:37;;;;;;;13.20;3.08;;;25.20;62.80;;;;;;6240310;23;20419;-72
2021/01/19 01:55:04;;;;;;;8.20;2.58;;;25.20;62.80;;;;;;6239394;23;20304;-75
2021/01/19 01:57:31;;;;;;;8.23;2.65;;;25.20;62.70;;;;;;6240341;23;20564;-70
2021/01/19 02:00:02;;;;;;;6.05;2.20;;;25.10;62.80;;;;;;6239166;23;20367;-76
2021/01/19 02:02:28;;;;;;;6.90;2.05;;;25.20;63.10;;;;;;6240112;23;20516;-81
2021/01/19 02:04:55;;;;;;;7.13;2.85;;;25.10;63.10;;;;;;6238795;23;20026;-76
2021/01/19 02:07:27;;;;;;;6.10;2.53;;;25.10;63.90;;;;;;6240090;23;20000;-71
2021/01/19 02:10:20;;;;;;;6.15;2.53;;;25.10;63.30;;;;;;6239878;23;20004;-77
2021/01/19 02:12:57;;;;;;;9.13;2.50;;;25.10;63.30;;;;;;6239384;22;20510;-81
2021/01/19 02:15:35;;;;;;;8.02;2.03;;;25.10;64.10;;;;;;6239899;23;20023;-73
2021/01/19 02:18:39;;;;;;;6.95;2.60;;;25.10;63.60;;;;;;6239127;23;20111;-78
2021/01/19 02:21:37;;;;;;;9.02;2.40;;;25.10;63.60;;;;;;6239159;23;20070;-76
2021/01/19 02:24:30;;;;;;;8.85;3.42;;;25.10;63.70;;;;;;6240125;23;20012;-69
2021/01/19 02:27:25;;;;;;;7.85;2.40;;;25.00;63.70;;;;;;6209148;23;20020;-76
2021/01/19 02:30:13;;;;;;;6.85;2.22;;;25.00;63.80;;;;;;6211107;22;20509;-70
2021/01/19 02:32:52;;;;;;;8.38;2.92;;;25.00;63.90;;;;;;6239658;22;20004;-75
2021/01/19 02:35:48;;;;;;;7.68;2.30;;;25.00;63.90;;;;;;6238794;23;20455;-77
2021/01/19 02:38:32;;;;;;;10.82;2.40;;;25.00;64.00;;;;;;6237744;23;20004;-69
2021/01/19 02:40:59;;;;;;;5.90;1.98;;;25.00;64.00;;;;;;6239658;23;20008;-75
2021/01/19 02:43:26;;;;;;;7.07;2.30;;;25.00;64.10;;;;;;6238569;23;20380;-71
2021/01/19 02:45:56;;;;;;;5.47;1.77;;;24.90;64.00;;;;;;6241095;23;20004;-74
2021/01/19 02:48:24;;;;;;;7.22;3.38;;;24.90;64.20;;;;;;6240231;23;20435;-73
2021/01/19 02:50:51;;;;;;;6.85;2.50;;;24.90;64.10;;;;;;6242294;23;20004;-78
2021/01/19 02:53:19;;;;;;;8.73;2.17;;;24.90;64.20;;;;;;6241928;23;20001;-79
2021/01/19 02:55:46;;;;;;;5.72;3.00;;;24.90;64.30;;;;;;6241519;23;20003;-73
2021/01/19 02:58:42;;;;;;;10.25;3.72;;;24.90;64.30;;;;;;6242174;23;20004;-75
2021/01/19 03:01:28;;;;;;;8.05;3.00;;;24.90;64.30;;;;;;6237499;23;20027;-77
2021/01/19 03:03:56;;;;;;;9.50;2.17;;;24.90;64.40;;;;;;6241655;23;20442;-69
2021/01/19 03:06:28;;;;;;;12.00;2.83;;;24.80;64.50;;;;;;6241372;23;19996;-76
2021/01/19 03:08:57;;;;;;;9.18;3.50;;;24.90;64.50;;;;;;6240643;23;20046;-69
2021/01/19 03:11:25;;;;;;;12.50;6.75;;;24.80;64.50;;;;;;6241750;23;20008;-77
2021/01/19 03:13:52;;;;;;;16.45;9.60;;;24.80;64.70;;;;;;6240737;23;20046;-78
2021/01/19 03:16:22;;;;;;;16.98;6.05;;;24.80;64.60;;;;;;6241921;23;20004;-71
2021/01/19 03:18:51;;;;;;;17.95;5.97;;;24.80;64.70;;;;;;6240686;23;20347;-76
2021/01/19 03:21:17;;;;;;;12.75;4.35;;;24.80;65.40;;;;;;6241146;23;20011;-71
2021/01/19 03:23:44;;;;;;;8.77;3.53;;;24.80;64.80;;;;;;6241398;23;20008;-79
2021/01/19 03:26:11;;;;;;;9.50;2.88;;;24.80;64.90;;;;;;6240416;23;20008;-69
2021/01/19 03:28:37;;;;;;;10.88;2.80;;;24.80;64.90;;;;;;6241573;23;20324;-70
2021/01/19 03:31:05;;;;;;;9.43;3.40;;;24.80;65.10;;;;;;6240180;23;20369;-70
2021/01/19 03:33:32;;;;;;;5.82;2.10;;;24.70;65.00;;;;;;6241771;23;20061;-77
2021/01/19 03:35:58;;;;;;;9.23;2.95;;;24.70;65.10;;;;;;6239998;23;20000;-75
2021/01/19 03:38:25;;;;;;;8.65;2.67;;;24.70;65.10;;;;;;6241593;23;20000;-73
2021/01/19 03:40:51;;;;;;;6.95;2.33;;;24.70;65.20;;;;;;6241516;23;20082;-75
2021/01/19 03:43:18;;;;;;;9.05;3.13;;;24.70;65.20;;;;;;6241048;23;20071;-75
2021/01/19 03:45:44;;;;;;;5.68;2.97;;;24.70;65.20;;;;;;6242305;23;20042;-71
2021/01/19 03:48:11;;;;;;;6.65;2.15;;;24.70;65.30;;;;;;6240051;23;20083;-75
2021/01/19 03:50:38;;;;;;;7.82;2.75;;;24.70;65.30;;;;;;6240939;23;19997;-71
2021/01/19 03:53:04;;;;;;;8.48;6.10;;;24.70;65.40;;;;;;6240625;23;20079;-69
2021/01/19 03:55:31;;;;;;;17.70;10.65;;;24.60;65.40;;;;;;6241057;23;20457;-75
2021/01/19 03:58:01;;;;;;;13.27;9.73;;;24.60;65.50;;;;;;6240285;23;20000;-72
2021/01/19 04:00:27;;;;;;;13.95;6.47;;;24.60;65.50;;;;;;6240148;23;20020;-69
2021/01/19 04:02:54;;;;;;;7.55;4.90;;;24.60;65.50;;;;;;6241116;23;20000;-75
2021/01/19 04:05:20;;;;;;;9.07;4.53;;;24.60;65.60;;;;;;6239537;23;20011;-72
2021/01/19 04:07:47;;;;;;;6.75;3.10;;;24.60;65.70;;;;;;6241129;23;20000;-71
2021/01/19 04:10:14;;;;;;;15.30;3.10;;;24.60;65.70;;;;;;6240041;23;20004;-71
2021/01/19 04:12:42;;;;;;;8.77;2.45;;;24.60;65.80;;;;;;6241772;23;20011;-71
2021/01/19 04:15:10;;;;;;;7.97;2.97;;;24.60;65.80;;;;;;6240329;23;20059;-72
2021/01/19 04:17:39;;;;;;;8.32;2.33;;;24.60;66.00;;;;;;6240905;23;20026;-69
2021/01/19 04:20:07;;;;;;;8.95;4.38;;;24.60;66.00;;;;;;6240984;22;20000;-74
2021/01/19 04:22:34;;;;;;;6.45;2.92;;;24.60;66.00;;;;;;6240428;22;20541;-79
2021/01/19 04:25:00;;;;;;;9.80;2.53;;;24.60;66.10;;;;;;6240842;23;20012;-68
2021/01/19 04:27:27;;;;;;;8.35;2.80;;;24.60;66.10;;;;;;6239871;23;20076;-78
2021/01/19 04:29:53;;;;;;;9.10;2.88;;;24.60;66.10;;;;;;6242144;23;20026;-75
2021/01/19 04:32:20;;;;;;;11.00;3.65;;;24.60;66.10;;;;;;6239849;22;20375;-75
2021/01/19 04:34:47;;;;;;;7.05;2.47;;;24.60;66.10;;;;;;6240876;23;20409;-73
2021/01/19 04:37:13;;;;;;;7.30;2.15;;;24.60;66.20;;;;;;6240812;23;20324;-68
2021/01/19 04:39:40;;;;;;;6.50;2.33;;;24.60;66.20;;;;;;6239870;23;20007;-71
2021/01/19 04:42:06;;;;;;;7.72;2.42;;;24.60;66.40;;;;;;6240958;23;20420;-78
2021/01/19 04:44:34;;;;;;;11.05;3.80;;;24.60;66.40;;;;;;6239556;23;20347;-75
2021/01/19 04:47:01;;;;;;;9.98;5.35;;;24.50;67.00;;;;;;6241540;23;20489;-79
2021/01/19 04:49:28;;;;;;;10.75;4.82;;;24.50;67.20;;;;;;6238889;22;20004;-80
2021/01/19 04:51:58;;;;;;;6.72;3.28;;;24.50;66.90;;;;;;6241439;23;20000;-77
2021/01/19 04:54:30;;;;;;;8.95;2.85;;;24.50;67.50;;;;;;6240583;23;20706;-74
2021/01/19 04:57:00;;;;;;;6.38;2.67;;;24.50;66.70;;;;;;6239671;23;20066;-71
2021/01/19 04:59:37;;;;;;;9.57;3.35;;;24.60;66.80;;;;;;6240879;22;20026;-73
2021/01/19 05:02:16;;;;;;;8.95;3.47;;;24.60;66.80;;;;;;6237478;23;20089;-73
2021/01/19 05:04:47;;;;;;;9.55;1.92;;;24.60;66.90;;;;;;6241075;23;20008;-79
2021/01/19 05:07:26;;;;;;;13.23;2.35;;;24.60;67.00;;;;;;6240375;22;20008;-74
2021/01/19 05:10:12;;;;;;;7.47;2.42;;;24.60;67.10;;;;;;6239910;23;20331;-71
2021/01/19 05:12:45;;;;;;;7.18;2.83;;;24.60;67.10;;;;;;6240591;23;20000;-72
2021/01/19 05:15:13;;;;;;;5.68;1.90;;;24.50;67.10;;;;;;6239259;23;20000;-78
2021/01/19 05:17:41;;;;;;;12.52;3.05;;;24.50;67.10;;;;;;6241108;23;20023;-76
2021/01/19 05:20:10;;;;;;;10.55;2.53;;;24.50;67.20;;;;;;6239918;23;20142;-76
2021/01/19 05:22:37;;;;;;;8.43;2.63;;;24.50;67.10;;;;;;6239863;22;20445;-70
2021/01/19 05:25:05;;;;;;;6.25;2.10;;;24.60;67.10;;;;;;6240663;23;20016;-74
2021/01/19 05:27:31;;;;;;;9.73;3.00;;;24.60;67.10;;;;;;6238690;23;20000;-72
2021/01/19 05:30:05;;;;;;;5.90;2.75;;;24.60;67.10;;;;;;6240749;22;20011;-72
2021/01/19 05:32:43;;;;;;;8.32;3.70;;;24.60;67.10;;;;;;6239504;23;20046;-71
2021/01/19 05:35:15;;;;;;;8.68;2.60;;;24.60;67.10;;;;;;6239363;22;20008;-70
2021/01/19 05:37:43;;;;;;;6.80;2.45;;;24.60;67.10;;;;;;6240365;23;20036;-70
2021/01/19 05:40:10;;;;;;;8.32;2.45;;;24.60;67.10;;;;;;6239867;23;20079;-71
2021/01/19 05:42:37;;;;;;;10.88;3.42;;;24.60;67.10;;;;;;6240108;23;20031;-71
2021/01/19 05:45:08;;;;;;;5.45;2.20;;;24.60;67.10;;;;;;6238934;23;20081;-72
2021/01/19 05:47:35;;;;;;;7.82;2.83;;;24.60;67.10;;;;;;6240210;23;20457;-70
2021/01/19 05:50:02;;;;;;;8.18;2.90;;;24.70;67.20;;;;;;6238028;22;20007;-73
2021/01/19 05:52:31;;;;;;;7.88;2.95;;;24.70;67.10;;;;;;6240162;23;20008;-71
2021/01/19 05:54:59;;;;;;;7.90;3.10;;;24.70;67.00;;;;;;6239472;23;20006;-73
2021/01/19 05:58:07;;;;;;;7.90;2.30;;;24.70;67.00;;;;;;6239174;22;19996;-71
2021/01/19 06:01:13;;;;;;;6.80;2.33;;;24.70;67.00;;;;;;6242061;23;20016;-78
2021/01/19 06:04:19;;;;;;;9.57;2.70;;;24.80;67.00;;;;;;6240213;23;20011;-74
2021/01/19 06:07:05;;;;;;;;;;;24.80;67.00;;;;;;6235139;23;20569;-72
2021/01/19 06:10:11;;;;;;;6.55;2.60;;;24.80;66.80;;;;;;6240056;23;19904;-76
2021/01/19 06:13:18;;;;;;;8.32;2.70;;;24.90;66.80;;;;;;6237073;23;20004;-77
2021/01/19 06:16:26;;;;;;;7.00;2.33;;;24.90;66.60;;;;;;6238723;23;20008;-80
2021/01/19 06:19:33;;;;;;;7.88;2.60;;;24.90;66.50;;;;;;6239717;23;20004;-74
2021/01/19 06:22:19;;;;;;;;;;;25.00;66.50;;;;;;6238374;23;20011;-70
2021/01/19 06:25:25;;;;;;;8.43;2.80;;;25.00;66.30;;;;;;6238629;23;19908;-72
2021/01/19 06:28:11;;;;;;;;;;;25.00;66.20;;;;;;6237810;23;20356;-71
2021/01/19 06:31:17;;;;;;;7.22;1.90;;;25.10;66.10;;;;;;6239624;22;19927;-70
2021/01/19 06:34:23;;;;;;;6.80;2.63;;;25.10;65.90;;;;;;6238722;22;20080;-75
2021/01/19 06:37:32;;;;;;;5.38;2.25;;;25.10;65.80;;;;;;6238147;23;20023;-70
2021/01/19 06:40:39;;;;;;;7.63;3.67;;;25.20;65.60;;;;;;6238160;23;20011;-72
2021/01/19 06:43:45;;;;;;;7.32;2.00;;;25.20;65.40;;;;;;6239443;23;20019;-72
2021/01/19 06:46:51;;;;;;;7.93;2.60;;;25.30;65.20;;;;;;6237677;23;20012;-69
2021/01/19 06:49:37;;;;;;;;;;;25.30;65.10;;;;;;6239807;23;20342;-69
2021/01/19 06:52:46;;;;;;;7.38;2.65;;;25.30;65.50;;;;;;6238790;23;20678;-70
2021/01/19 06:56:07;;;;;;;6.28;2.38;;;25.30;64.70;;;;;;6238099;23;20012;-70
2021/01/19 06:59:19;;;;;;;9.55;2.10;;;25.30;64.60;;;;;;6238244;23;20011;-76
2021/01/19 07:02:25;;;;;;;10.95;2.97;;;25.40;64.40;;;;;;6239565;23;20020;-70
2021/01/19 07:05:11;;;;;;;;;;;25.40;64.40;;;;;;6239229;23;20031;-70
2021/01/19 07:08:27;;;;;;;11.60;2.38;;;25.40;64.20;;;;;;6238114;23;19903;-69
2021/01/19 07:11:25;;;;;;;8.98;2.00;;;25.50;64.10;;;;;;6236868;23;20043;-79
2021/01/19 07:14:31;;;;;;;13.40;2.47;;;25.50;63.80;;;;;;6239859;23;20058;-77
2021/01/19 07:17:17;;;;;;;;;;;25.50;63.60;;;;;;6239277;23;20344;-70
2021/01/19 07:20:24;;;;;;;3.72;1.77;;;25.60;63.60;;;;;;6235562;23;19934;-69
2021/01/19 07:23:30;;;;;;;3.75;1.83;;;25.60;62.90;;;;;;6239461;23;20008;-72
2021/01/19 07:26:16;;;;;;;;;;;25.60;62.90;;;;;;6237911;23;20012;-71
2021/01/19 07:29:22;;;;;;;4.20;1.73;;;25.70;62.40;;;;;;6238737;23;19903;-71
2021/01/19 07:32:28;;;;;;;8.68;2.05;;;25.70;62.00;;;;;;6240324;22;20362;-72
2021/01/19 07:35:14;;;;;;;;;;;25.70;61.10;;;;;;6240583;23;20327;-85
2021/01/19 07:38:21;;;;;;;3.95;1.55;;;25.70;60.50;;;;;;6240528;23;19899;-72
2021/01/19 07:41:07;;;;;;;;;;;25.70;61.00;;;;;;6241931;23;20317;-71
2021/01/19 07:44:13;;;;;;;3.83;1.42;;;25.70;59.40;;;;;;6241486;23;19982;-86
2021/01/19 07:46:58;;;;;;;;;;;25.80;59.00;;;;;;6240484;23;20004;-74
2021/01/19 07:50:11;;;;;;;6.55;1.35;;;25.80;58.50;;;;;;6241638;23;20596;-72
2021/01/19 07:53:17;;;;;;;5.60;1.20;;;25.90;58.00;;;;;;6236577;23;20008;-70
2021/01/19 07:56:03;;;;;;;;;;;25.90;57.60;;;;;;6240422;23;20004;-76
2021/01/19 07:58:49;;;;;;;;;;;25.90;57.00;;;;;;6241392;23;19903;-71
2021/01/19 08:01:58;;;;;;;3.35;1.30;;;26.00;56.80;;;;;;6240892;23;19918;-70
2021/01/19 08:05:08;;;;;;;7.18;3.30;;;26.00;57.20;;;;;;6239520;23;20008;-81
2021/01/19 08:08:32;;;;;;;4.55;2.80;;;26.00;56.70;;;;;;6238293;23;20051;-76
2021/01/19 08:11:38;;;;;;;4.82;1.50;;;26.10;55.10;;;;;;6241327;23;20015;-74
2021/01/19 08:14:24;;;;;;;;;;;26.10;54.90;;;;;;6242319;23;20004;-70
2021/01/19 08:17:30;;;;;;;2.47;1.67;;;26.10;55.30;;;;;;6239999;23;19899;-69
2021/01/19 08:20:16;;;;;;;;;;;26.20;55.20;;;;;;6239978;23;20511;-73
2021/01/19 08:23:28;;;;;;;2.83;1.15;;;26.20;52.90;;;;;;6240858;23;19904;-69
2021/01/19 08:26:34;;;;;;;3.45;2.17;;;26.30;53.00;;;;;;6239735;23;20008;-75
2021/01/19 08:29:40;;;;;;;2.50;0.90;;;26.30;52.70;;;;;;6240367;23;20088;-75
2021/01/19 08:32:46;;;;;;;17.48;4.38;;;26.40;52.90;;;;;;6240367;23;20017;-69
2021/01/19 08:35:32;;;;;;;;;;;26.40;53.30;;;;;;6241524;23;20432;-77
2021/01/19 08:38:38;;;;;;;5.45;1.75;;;26.50;52.90;;;;;;6239558;23;20391;-76
2021/01/19 08:41:44;;;;;;;4.75;1.45;;;26.60;54.00;;;;;;6241370;23;20332;-77
2021/01/19 08:44:50;;;;;;;4.00;1.90;;;26.60;53.70;;;;;;6241496;23;20004;-85
2021/01/19 08:47:56;;;;;;;2.92;1.00;;;26.70;53.60;;;;;;6239870;23;20004;-74
2021/01/19 08:51:03;;;;;;;5.22;1.25;;;26.80;53.20;;;;;;6241093;23;20075;-82
2021/01/19 08:54:09;;;;;;;3.95;1.17;;;26.90;53.60;;;;;;6240957;23;20000;-85
2021/01/19 08:57:18;;;;;;;10.60;1.95;;;26.90;52.70;;;;;;6240450;23;20000;-70
2021/01/19 09:00:30;;;;;;;1.70;0.60;;;26.90;53.10;;;;;;6240061;23;20031;-85
2021/01/19 09:03:36;;;;;;;1.67;0.85;;;27.00;53.40;;;;;;6240591;23;20014;-82
2021/01/19 09:06:43;;;;;;;2.05;0.80;;;26.90;52.50;;;;;;6240728;23;20031;-72
2021/01/19 09:09:49;;;;;;;1.17;0.47;;;26.90;52.60;;;;;;6239087;23;20004;-83
2021/01/19 09:12:55;;;;;;;3.05;0.98;;;26.90;53.30;;;;;;6239393;23;20066;-72
2021/01/19 09:16:01;;;;;;;4.72;1.52;;;26.90;53.40;;;;;;6238772;23;20114;-80
2021/01/19 09:19:07;;;;;;;2.65;1.25;;;26.80;53.70;;;;;;6240472;23;20004;-69
2021/01/19 09:22:13;;;;;;;4.80;1.00;;;26.70;53.50;;;;;;6238282;23;20031;-70
2021/01/19 09:25:19;;;;;;;2.72;0.80;;;26.70;53.50;;;;;;6240202;23;20023;-70
2021/01/19 09:28:26;;;;;;;1.80;0.63;;;26.60;54.10;;;;;;6240449;23;20000;-75
2021/01/19 09:31:35;;;;;;;2.20;0.90;;;26.50;53.90;;;;;;6239257;23;20010;-71
2021/01/19 09:34:41;;;;;;;3.22;1.98;;;26.50;54.00;;;;;;6239452;23;20071;-70
2021/01/19 09:37:47;;;;;;;3.80;1.63;;;26.40;54.50;;;;;;6240232;23;20000;-79
2021/01/19 09:40:53;;;;;;;6.43;1.58;;;26.40;54.80;;;;;;6240059;23;20362;-77
2021/01/19 09:43:59;;;;;;;2.60;1.52;;;26.40;55.10;;;;;;6238356;23;20380;-72
2021/01/19 09:47:05;;;;;;;3.38;1.40;;;26.50;55.10;;;;;;6240089;23;20457;-80
2021/01/19 09:50:11;;;;;;;4.57;1.27;;;26.50;55.20;;;;;;6240543;23;20366;-70
2021/01/19 09:53:17;;;;;;;2.72;0.90;;;26.50;55.30;;;;;;6239042;23;20004;-74
2021/01/19 09:56:36;;;;;;;12.60;9.07;;;26.50;55.60;;;;;;6239017;23;19999;-79
2021/01/19 09:59:48;;;;;;;6.68;4.05;;;26.50;55.80;;;;;;6240567;23;20087;-71
2021/01/19 10:02:54;;;;;;;5.57;2.38;;;26.60;55.80;;;;;;6239720;23;20027;-71
2021/01/19 10:06:03;;;;;;;3.90;2.00;;;26.50;55.90;;;;;;6238886;23;20111;-70
2021/01/19 10:09:10;;;;;;;4.57;2.13;;;26.50;56.30;;;;;;6238941;23;20020;-72
2021/01/19 10:12:16;;;;;;;4.40;2.00;;;26.50;56.20;;;;;;6240582;23;20004;-74
2021/01/19 10:15:22;;;;;;;7.20;2.50;;;26.50;56.40;;;;;;6239356;23;20297;-72
2021/01/19 10:18:28;;;;;;;4.00;2.78;;;26.60;56.30;;;;;;6238512;23;20039;-73
2021/01/19 10:21:34;;;;;;;4.35;2.10;;;26.70;56.00;;;;;;6240051;23;20003;-79
2021/01/19 10:24:41;;;;;;;5.47;2.42;;;26.70;55.60;;;;;;6238427;23;20054;-74
2021/01/19 10:27:47;;;;;;;5.30;2.55;;;26.70;55.50;;;;;;6238304;23;20020;-71
2021/01/19 10:30:53;;;;;;;7.10;3.75;;;26.80;55.20;;;;;;6238987;23;20004;-74
2021/01/19 10:34:06;;;;;;;7.97;3.40;;;26.80;54.70;;;;;;6239690;23;20011;-70
2021/01/19 10:37:12;;;;;;;6.45;3.92;;;26.70;54.30;;;;;;6238834;23;20323;-76
2021/01/19 10:40:30;;;;;;;6.72;3.22;;;26.70;54.70;;;;;;6238229;23;20004;-72
2021/01/19 10:43:36;;;;;;;8.05;2.17;;;26.70;54.80;;;;;;6239321;23;20012;-74
2021/01/19 10:46:43;;;;;;;4.97;2.60;;;26.70;54.70;;;;;;6238380;23;20039;-73
2021/01/19 10:49:52;;;;;;;4.90;1.65;;;26.70;54.40;;;;;;6239082;23;20402;-72
2021/01/19 10:53:01;;;;;;;3.20;1.58;;;26.80;54.60;;;;;;6238623;23;20026;-73
2021/01/19 10:56:07;;;;;;;3.80;1.88;;;26.80;54.30;;;;;;6239671;22;20001;-73
2021/01/19 10:59:14;;;;;;;5.82;2.88;;;26.90;54.30;;;;;;6239564;23;20017;-72
2021/01/19 11:02:20;;;;;;;5.65;2.75;;;26.90;53.60;;;;;;6238470;23;20016;-73
2021/01/19 11:05:26;;;;;;;6.03;1.90;;;27.00;53.90;;;;;;6238696;23;20012;-72
2021/01/19 11:08:32;;;;;;;3.20;1.40;;;27.00;53.10;;;;;;6235932;23;20004;-77
2021/01/19 11:11:38;;;;;;;4.75;1.63;;;27.10;53.20;;;;;;6240781;23;20323;-73
2021/01/19 11:14:44;;;;;;;6.03;1.83;;;27.20;53.30;;;;;;6239992;23;20072;-75
2021/01/19 11:17:50;;;;;;;7.60;1.70;;;27.20;52.60;;;;;;6241136;23;20019;-77
2021/01/19 11:20:57;;;;;;;6.10;1.35;;;27.10;53.00;;;;;;6241120;22;20011;-76
2021/01/19 11:24:03;;;;;;;3.58;1.83;;;27.10;52.80;;;;;;6240177;22;20358;-74
2021/01/19 11:27:09;;;;;;;7.38;1.80;;;27.10;53.10;;;;;;6240481;23;20305;-77
2021/01/19 11:30:16;;;;;;;2.25;1.88;;;27.20;52.70;;;;;;6241319;23;20008;-76
2021/01/19 11:33:22;;;;;;;5.10;2.85;;;27.20;52.40;;;;;;6240794;23;20042;-73
2021/01/19 11:36:28;;;;;;;8.73;4.00;;;27.20;52.40;;;;;;6240198;23;20004;-73
2021/01/19 11:39:34;;;;;;;7.65;2.95;;;27.30;52.00;;;;;;6241143;23;20035;-76
2021/01/19 11:42:40;;;;;;;8.20;3.15;;;27.40;51.70;;;;;;6235990;23;20004;-75
2021/01/19 11:45:46;;;;;;;3.33;2.33;;;27.50;51.40;;;;;;6240132;23;20069;-78
2021/01/19 11:48:52;;;;;;;6.25;1.92;;;27.60;51.20;;;;;;6239602;23;20349;-75
2021/01/19 11:51:58;;;;;;;6.47;2.10;;;27.60;51.40;;;;;;6240580;23;20107;-73
2021/01/19 11:55:05;;;;;;;3.78;1.95;;;27.60;51.00;;;;;;6240892;23;20023;-75
2021/01/19 11:58:11;;;;;;;4.25;2.17;;;27.70;50.70;;;;;;6239565;23;20012;-75
2021/01/19 12:01:17;;;;;;;2.53;1.13;;;27.70;50.50;;;;;;6240653;23;20443;-78
2021/01/19 12:04:23;;;;;;;6.82;1.75;;;27.80;50.10;;;;;;6240694;23;20024;-78
2021/01/19 12:07:29;;;;;;;5.13;1.38;;;27.90;50.10;;;;;;6239619;23;20071;-78
2021/01/19 12:10:36;;;;;;;4.85;3.17;;;28.00;49.70;;;;;;6239433;23;20335;-78
2021/01/19 12:13:42;;;;;;;11.25;4.10;;;28.00;50.00;;;;;;6235954;22;20000;-73
2021/01/19 12:16:48;;;;;;;3.53;2.50;;;27.90;49.80;;;;;;6238735;23;20019;-73
2021/01/19 12:19:54;;;;;;;9.18;2.55;;;28.00;49.50;;;;;;6239127;23;20057;-77
2021/01/19 12:23:00;;;;;;;2.47;1.92;;;28.10;49.80;;;;;;6239843;23;20414;-72
2021/01/19 12:26:06;;;;;;;8.98;1.88;;;28.20;49.30;;;;;;6241739;23;20453;-80
2021/01/19 12:29:12;;;;;;;5.07;1.77;;;28.20;48.80;;;;;;6240856;23;20420;-72
2021/01/19 12:32:19;;;;;;;2.83;1.33;;;28.20;48.60;;;;;;6239712;23;20027;-80
2021/01/19 12:35:25;;;;;;;4.68;1.33;;;28.20;48.20;;;;;;6240953;23;20000;-79
2021/01/19 12:38:34;;;;;;;10.45;2.30;;;28.30;47.80;;;;;;6239325;23;20106;-73
2021/01/19 12:41:40;;;;;;;12.93;2.83;;;28.30;48.20;;;;;;6239501;23;20637;-75
2021/01/19 12:44:47;;;;;;;5.65;1.80;;;28.30;48.40;;;;;;6240226;23;20069;-79
2021/01/19 12:47:53;;;;;;;5.18;2.47;;;28.40;48.20;;;;;;6240828;23;20004;-79
2021/01/19 12:50:59;;;;;;;7.22;2.95;;;28.40;48.00;;;;;;6240023;23;20000;-83
2021/01/19 12:54:05;;;;;;;8.73;2.53;;;28.50;47.80;;;;;;6240205;23;20427;-83
2021/01/19 12:57:11;;;;;;;6.20;2.20;;;28.60;47.50;;;;;;6240734;23;20019;-83
2021/01/19 13:00:18;;;;;;;4.47;2.15;;;28.60;48.00;;;;;;6241278;23;20007;-82
2021/01/19 13:03:24;;;;;;;4.35;1.75;;;28.70;47.20;;;;;;6240148;23;19996;-78
2021/01/19 13:06:30;;;;;;;4.40;2.33;;;28.70;47.80;;;;;;6238779;23;20822;-83
2021/01/19 13:09:36;;;;;;;7.13;1.48;;;28.60;47.10;;;;;;6240970;23;20578;-78
2021/01/19 13:12:42;;;;;;;2.97;1.40;;;28.70;46.80;;;;;;6240465;23;20335;-75
2021/01/19 13:15:48;;;;;;;2.38;0.82;;;28.70;46.40;;;;;;6239921;23;20010;-81
2021/01/19 13:18:55;;;;;;;6.93;1.33;;;28.70;46.30;;;;;;6241721;23;20419;-82
2021/01/19 13:22:01;;;;;;;2.25;1.00;;;28.70;46.60;;;;;;6240656;23;20050;-82
2021/01/19 13:25:07;;;;;;;4.43;1.10;;;28.70;46.30;;;;;;6239132;22;20012;-84
2021/01/19 13:28:14;;;;;;;2.47;0.90;;;28.80;45.80;;;;;;6238161;23;20004;-83
2021/01/19 13:31:20;;;;;;;10.02;1.40;;;28.80;46.10;;;;;;6240855;22;20004;-77
2021/01/19 13:34:26;;;;;;;4.63;1.10;;;28.80;45.70;;;;;;6240930;23;20000;-80
2021/01/19 13:37:32;;;;;;;6.50;1.38;;;28.80;45.20;;;;;;6239498;23;20007;-74
2021/01/19 13:40:38;;;;;;;4.88;0.98;;;28.80;45.60;;;;;;6240191;23;19996;-80
2021/01/19 13:43:44;;;;;;;3.58;1.13;;;28.80;44.90;;;;;;6240414;23;20550;-78
2021/01/19 13:46:50;;;;;;;4.35;1.00;;;28.70;44.60;;;;;;6239387;23;20070;-78
2021/01/19 13:49:56;;;;;;;2.33;1.27;;;28.80;44.70;;;;;;6239921;23;20068;-77
2021/01/19 13:53:03;;;;;;;3.70;1.42;;;28.80;45.00;;;;;;6240320;23;20001;-71
2021/01/19 13:56:09;;;;;;;2.70;1.10;;;28.80;44.10;;;;;;6240928;23;20372;-82
2021/01/19 13:59:15;;;;;;;4.47;1.10;;;28.80;44.30;;;;;;6239473;23;20351;-72
2021/01/19 14:02:27;;;;;;;3.05;1.73;;;28.70;44.00;;;;;;6240241;23;20020;-72
2021/01/19 14:05:34;;;;;;;5.15;1.00;;;28.70;44.10;;;;;;6240424;23;20087;-83
2021/01/19 14:08:40;;;;;;;3.22;0.93;;;28.70;44.60;;;;;;6239733;22;20000;-83
2021/01/19 14:11:46;;;;;;;7.18;1.63;;;28.70;45.10;;;;;;6239774;23;20000;-82
2021/01/19 14:14:52;;;;;;;3.28;0.90;;;28.70;44.80;;;;;;6240530;22;20316;-80
2021/01/19 14:17:59;;;;;;;6.72;1.40;;;28.60;44.60;;;;;;6240185;23;19997;-80
2021/01/19 14:21:05;;;;;;;6.75;1.10;;;28.60;44.00;;;;;;6237785;23;20062;-83
2021/01/19 14:24:11;;;;;;;2.55;0.90;;;28.70;43.80;;;;;;6240369;23;20465;-79
2021/01/19 14:27:17;;;;;;;4.78;1.73;;;28.70;43.60;;;;;;6240319;23;20007;-80
2021/01/19 14:30:23;;;;;;;9.82;1.05;;;28.70;43.80;;;;;;6239231;23;20024;-77
2021/01/19 14:33:29;;;;;;;4.30;1.25;;;28.70;45.00;;;;;;6238381;23;20478;-75
2021/01/19 14:36:35;;;;;;;4.55;1.55;;;28.70;43.50;;;;;;6240258;23;20103;-81
2021/01/19 14:39:41;;;;;;;7.70;1.38;;;28.60;43.70;;;;;;6240791;23;20008;-83
2021/01/19 14:42:47;;;;;;;3.67;1.30;;;28.60;44.30;;;;;;6240598;23;20785;-71
2021/01/19 14:45:54;;;;;;;4.85;1.20;;;28.60;44.90;;;;;;6241520;22;20019;-78